Aeroporto :
LOGIN :

Iscrizione | Disclaimer

   EN    FR    IT 

 










Sommario :    VFR   VFR Marginale   IFR   IFR Intensivo   IFR Molto Intensivo
Visibilità : 
Base nubi : 
>= 8 km
>= 3000ft
5 / 8 km
1000 / 3000 ft
1500m / 5 km
500 / 1000 ft
800 / 1500m
200 / 500 ft
< 800m
< 200 ft
Simboli :   Temporali  Nebbia  Neve Forte  Precipitazioni Forti  Vento > 20 kt
SIGMETs :   Varie  Temporali  Ghiacco  Turbolenza  Onda orograficha  Ceneri Vulcaniche






- Altitudine del aeroporto : 392 ft
- Codice IATA : CDG


LFPG - Paris-Aeroport Charles De Gaulle

ULTIMO METAR :
  • 310800Z AUTO 08011KT CAVOK 18/05 Q1020 NOSIG

METARs OBSOLETI :
  • 310730Z AUTO 09010KT CAVOK 18/05 Q1020 NOSIG
  • 310700Z AUTO 08009KT CAVOK 17/05 Q1020 NOSIG
  • 310630Z AUTO 08009KT CAVOK 16/05 Q1020 NOSIG
  • 310600Z AUTO 09008KT CAVOK 16/06 Q1020 NOSIG
  • 310530Z AUTO 08007KT CAVOK 15/05 Q1020 NOSIG
  • 310500Z AUTO 08007KT CAVOK 14/05 Q1020 NOSIG

TAF TAF LFPG
Valido dal 31 a 06 ore il 01 a 12 ore UTC


310500Z 3106/0112 07010KT CAVOK TX25/0112Z TN13/0104Z
PROB30
TEMPO 3112/3114 08015G25KT
ATIS : +33 1 48 62 10 92



MetMap, La meteo Aeronautica in un colpo d'occhio ! - Copyright ORBIFLY Dicembre 2007 - Disclaimer

ORBIFLY MET'MAP TEAM :

Programmazione e sviluppo : Alexandra Zaïnal
Concezione : Baudouin d'Aumeries
Aiuto per la programmazione : Marc-Olivier Méhu
Supporto tecnico e logistico : Manuel Goepfert
Aiuto per la traduzione : Arnaldo La Scala

Contatto : metmap@orbifly.com




FONTI E CREDITI :

   NOAA